Time;durP1;ratioP1;P1;durP2;ratioP2;P2;SDS_P1;SDS_P2;PMS_P1;PMS_P2;Temp;Humidity;BMP_temperature;BMP_pressure;BME280_temperature;BME280_humidity;BME280_pressure;Samples;Min_cycle;Max_cycle;Signal;HPM_P1;HPM_P2
2021/08/02 00:00:48;;;;;;;3.08;1.20;;;;;;;;;;5053575;28;20102;-71
2021/08/02 00:03:19;;;;;;;2.65;1.27;;;;;;;;;;5052894;28;20028;-70
2021/08/02 00:05:46;;;;;;;6.18;1.38;;;;;;;;;;5052660;28;20274;-69
2021/08/02 00:08:14;;;;;;;4.18;1.63;;;;;;;;;;5052845;28;20486;-68
2021/08/02 00:10:40;;;;;;;4.55;1.63;;;;;;;;;;5053679;28;20025;-69
2021/08/02 00:13:14;;;;;;;4.00;1.35;;;;;;;;;;5052451;28;20099;-69
2021/08/02 00:15:40;;;;;;;4.80;1.88;;;;;;;;;;5052564;28;20021;-70
2021/08/02 00:18:07;;;;;;;3.40;1.50;;;;;;;;;;5054089;28;20036;-70
2021/08/02 00:20:34;;;;;;;6.55;1.42;;;;;;;;;;5053809;28;20017;-69
2021/08/02 00:23:03;;;;;;;5.43;1.58;;;;;;;;;;5053785;28;20079;-69
2021/08/02 00:25:29;;;;;;;2.55;1.08;;;;;;;;;;5053774;28;20484;-71
2021/08/02 00:27:55;;;;;;;6.75;1.38;;;;;;;;;;5053920;28;20047;-70
2021/08/02 00:30:24;;;;;;;24.80;2.60;;;;;;;;;;5053651;28;20027;-69
2021/08/02 00:32:50;;;;;;;21.83;2.17;;;;;;;;;;5052331;28;20078;-71
2021/08/02 00:35:16;;;;;;;6.15;1.90;;;;;;;;;;5053563;28;20036;-69
2021/08/02 00:38:04;;;;;;;4.05;1.27;;;;;;;;;;5052380;28;20082;-69
2021/08/02 00:40:48;;;;;;;7.20;1.40;;;;;;;;;;5053125;28;20028;-69
2021/08/02 00:43:30;;;;;;;4.38;1.50;;;;;;;;;;5053831;28;20052;-69
2021/08/02 00:45:56;;;;;;;3.33;1.40;;;;;;;;;;5052231;28;20025;-69
2021/08/02 00:48:27;;;;;;;4.53;1.30;;;;;;;;;;5053564;28;20096;-69
2021/08/02 00:50:53;;;;;;;3.83;1.40;;;;;;;;;;5053696;28;20071;-69
2021/08/02 00:53:19;;;;;;;6.63;1.50;;;;;;;;;;5053668;28;20033;-69
2021/08/02 00:55:47;;;;;;;3.92;1.30;;;;;;;;;;5053387;28;20060;-69
2021/08/02 00:58:17;;;;;;;3.10;1.30;;;;;;;;;;5053418;28;20029;-70
2021/08/02 01:00:43;;;;;;;2.42;1.10;;;;;;;;;;5053159;28;20134;-70
2021/08/02 01:03:11;;;;;;;2.83;1.40;;;;;;;;;;5053329;28;20512;-69
2021/08/02 01:05:38;;;;;;;4.75;1.45;;;;;;;;;;5051887;28;20044;-70
2021/08/02 01:08:06;;;;;;;6.00;1.30;;;;;;;;;;5053114;28;20021;-69
2021/08/02 01:10:33;;;;;;;3.65;1.30;;;;;;;;;;5053287;28;20029;-69
2021/08/02 01:13:01;;;;;;;3.50;1.40;;;;;;;;;;5035078;28;20064;-69
2021/08/02 01:15:28;;;;;;;5.95;1.38;;;;;;;;;;5035201;28;20024;-69
2021/08/02 01:17:55;;;;;;;2.80;1.17;;;;;;;;;;5053059;28;20584;-69
2021/08/02 01:20:22;;;;;;;3.30;1.30;;;;;;;;;;5035135;28;20384;-69
2021/08/02 01:22:49;;;;;;;3.05;1.33;;;;;;;;;;5053008;28;20476;-69
2021/08/02 01:25:34;;;;;;;3.38;1.27;;;;;;;;;;5035067;28;20120;-69
2021/08/02 01:28:15;;;;;;;4.72;1.27;;;;;;;;;;5052929;28;20028;-69
2021/08/02 01:30:41;;;;;;;2.58;1.30;;;;;;;;;;5034856;28;20025;-69
2021/08/02 01:33:08;;;;;;;2.70;1.15;;;;;;;;;;5052710;28;20017;-69
2021/08/02 01:35:36;;;;;;;2.85;1.40;;;;;;;;;;5052793;28;20040;-69
2021/08/02 01:38:03;;;;;;;2.85;1.20;;;;;;;;;;5052480;28;20649;-69
2021/08/02 01:40:29;;;;;;;2.42;1.08;;;;;;;;;;5052657;28;20041;-69
2021/08/02 01:42:57;;;;;;;3.35;1.20;;;;;;;;;;5052734;28;20478;-69
2021/08/02 01:45:23;;;;;;;3.58;1.30;;;;;;;;;;5052480;28;20480;-70
2021/08/02 01:48:08;;;;;;;3.67;1.20;;;;;;;;;;5052404;28;20398;-70
2021/08/02 01:50:42;;;;;;;2.97;1.20;;;;;;;;;;5034490;28;20025;-70
2021/08/02 01:53:14;;;;;;;3.13;1.13;;;;;;;;;;5052441;28;20029;-69
2021/08/02 01:55:43;;;;;;;2.67;1.25;;;;;;;;;;5052379;28;20029;-70
2021/08/02 01:58:10;;;;;;;4.55;1.30;;;;;;;;;;5052436;28;20037;-70
2021/08/02 02:00:39;;;;;;;3.08;1.25;;;;;;;;;;5050329;28;20024;-70
2021/08/02 02:03:12;;;;;;;2.85;1.27;;;;;;;;;;5034931;28;20056;-71
2021/08/02 02:05:40;;;;;;;3.50;1.23;;;;;;;;;;5052278;28;20024;-70
2021/08/02 02:08:06;;;;;;;1.95;1.08;;;;;;;;;;5055051;28;20063;-70
2021/08/02 02:10:38;;;;;;;2.58;1.10;;;;;;;;;;5038448;28;20028;-70
2021/08/02 02:13:05;;;;;;;3.80;1.38;;;;;;;;;;5054957;28;20132;-71
2021/08/02 02:15:32;;;;;;;2.80;1.35;;;;;;;;;;5051842;28;20032;-70
2021/08/02 02:17:59;;;;;;;2.45;1.17;;;;;;;;;;5055498;28;20494;-70
2021/08/02 02:20:25;;;;;;;4.10;1.52;;;;;;;;;;5052427;28;20090;-69
2021/08/02 02:22:51;;;;;;;5.60;1.17;;;;;;;;;;5056308;28;20071;-70
2021/08/02 02:25:17;;;;;;;3.33;1.00;;;;;;;;;;5038927;28;20025;-69
2021/08/02 02:27:45;;;;;;;4.15;1.35;;;;;;;;;;5041154;28;20572;-70
2021/08/02 02:30:12;;;;;;;3.13;1.40;;;;;;;;;;5046767;28;20024;-70
2021/08/02 02:32:39;;;;;;;3.85;1.25;;;;;;;;;;5053690;28;20027;-69
2021/08/02 02:35:06;;;;;;;5.75;1.38;;;;;;;;;;5072044;28;20021;-69
2021/08/02 02:37:32;;;;;;;2.50;1.20;;;;;;;;;;5053809;28;20036;-69
2021/08/02 02:39:58;;;;;;;3.97;1.35;;;;;;;;;;5053769;28;20025;-69
2021/08/02 02:42:24;;;;;;;2.75;1.20;;;;;;;;;;5071708;28;20067;-69
2021/08/02 02:44:51;;;;;;;3.55;1.30;;;;;;;;;;5071420;28;20020;-69
2021/08/02 02:47:17;;;;;;;2.88;1.23;;;;;;;;;;5053844;28;20021;-69
2021/08/02 02:49:44;;;;;;;3.42;1.23;;;;;;;;;;5071718;28;20095;-70
2021/08/02 02:52:10;;;;;;;4.50;1.27;;;;;;;;;;5053691;28;20124;-71
2021/08/02 02:54:37;;;;;;;6.68;1.30;;;;;;;;;;5071683;28;20021;-71
2021/08/02 02:57:04;;;;;;;3.15;1.30;;;;;;;;;;5071720;28;20123;-71
2021/08/02 02:59:30;;;;;;;7.80;1.30;;;;;;;;;;5071592;28;20397;-71
2021/08/02 03:01:58;;;;;;;6.78;1.30;;;;;;;;;;5071720;28;20029;-71
2021/08/02 03:04:26;;;;;;;4.07;1.33;;;;;;;;;;5056311;28;20021;-71
2021/08/02 03:06:54;;;;;;;2.65;1.08;;;;;;;;;;5075693;28;20421;-71
2021/08/02 03:09:21;;;;;;;3.30;1.30;;;;;;;;;;5075766;28;20482;-71
2021/08/02 03:11:48;;;;;;;8.75;1.30;;;;;;;;;;5075426;28;20021;-69
2021/08/02 03:14:17;;;;;;;8.93;1.13;;;;;;;;;;5075294;28;20074;-70
2021/08/02 03:16:44;;;;;;;2.95;1.27;;;;;;;;;;5075193;28;20021;-70
2021/08/02 03:19:10;;;;;;;3.70;1.48;;;;;;;;;;5075361;28;20025;-69
2021/08/02 03:21:36;;;;;;;5.55;1.48;;;;;;;;;;5075537;28;20232;-69
2021/08/02 03:24:20;;;;;;;4.25;1.48;;;;;;;;;;5075418;28;20561;-69
2021/08/02 03:27:02;;;;;;;4.55;1.70;;;;;;;;;;5057188;28;20120;-68
2021/08/02 03:29:35;;;;;;;22.75;2.58;;;;;;;;;;5075179;28;20021;-69
2021/08/02 03:32:03;;;;;;;4.70;1.50;;;;;;;;;;5075401;28;20074;-68
2021/08/02 03:34:31;;;;;;;3.55;1.23;;;;;;;;;;5074996;28;20055;-69
2021/08/02 03:36:59;;;;;;;3.13;1.35;;;;;;;;;;5074774;28;20048;-68
2021/08/02 03:39:25;;;;;;;2.33;1.20;;;;;;;;;;5074715;28;20514;-69
2021/08/02 03:41:52;;;;;;;4.57;1.50;;;;;;;;;;5074936;28;20024;-68
2021/08/02 03:44:18;;;;;;;4.05;1.50;;;;;;;;;;5056900;28;20030;-68
2021/08/02 03:46:44;;;;;;;4.03;1.38;;;;;;;;;;5074852;28;20028;-69
2021/08/02 03:49:11;;;;;;;3.35;1.50;;;;;;;;;;5074642;28;20402;-68
2021/08/02 03:51:43;;;;;;;2.35;1.30;;;;;;;;;;5074770;28;20028;-68
2021/08/02 03:54:09;;;;;;;3.22;1.30;;;;;;;;;;5056799;28;20023;-69
2021/08/02 03:56:36;;;;;;;3.92;1.67;;;;;;;;;;5074688;28;20040;-68
2021/08/02 03:59:02;;;;;;;3.20;1.48;;;;;;;;;;5056491;28;20020;-68
2021/08/02 04:01:28;;;;;;;2.63;1.23;;;;;;;;;;5074446;28;20029;-69
2021/08/02 04:03:54;;;;;;;2.50;1.27;;;;;;;;;;5074279;28;20108;-69
2021/08/02 04:06:20;;;;;;;3.97;1.40;;;;;;;;;;5074490;28;20078;-69
2021/08/02 04:08:46;;;;;;;3.13;1.55;;;;;;;;;;5074399;28;20028;-69
2021/08/02 04:11:12;;;;;;;5.15;1.40;;;;;;;;;;5074370;28;20023;-69
2021/08/02 04:13:38;;;;;;;3.75;1.77;;;;;;;;;;5074109;28;20108;-69
2021/08/02 04:16:05;;;;;;;2.88;1.50;;;;;;;;;;5073048;28;20023;-69
2021/08/02 04:18:31;;;;;;;3.70;1.65;;;;;;;;;;5074373;28;20028;-69
2021/08/02 04:20:57;;;;;;;5.10;1.58;;;;;;;;;;5074328;28;20383;-69
2021/08/02 04:23:23;;;;;;;2.95;1.27;;;;;;;;;;5074210;28;20025;-70
2021/08/02 04:25:49;;;;;;;3.33;1.20;;;;;;;;;;5074030;28;20025;-70
2021/08/02 04:28:15;;;;;;;3.75;1.50;;;;;;;;;;5074112;28;20023;-69
2021/08/02 04:30:41;;;;;;;4.07;1.35;;;;;;;;;;5047629;28;20399;-69
2021/08/02 04:33:07;;;;;;;4.65;1.30;;;;;;;;;;5064313;28;20596;-70
2021/08/02 04:35:33;;;;;;;6.07;1.48;;;;;;;;;;5062510;28;20028;-69
2021/08/02 04:37:59;;;;;;;4.68;1.40;;;;;;;;;;5060960;28;20032;-69
2021/08/02 04:40:25;;;;;;;3.25;1.27;;;;;;;;;;5058749;28;20060;-69
2021/08/02 04:42:51;;;;;;;2.80;1.52;;;;;;;;;;5061155;28;20063;-69
2021/08/02 04:45:18;;;;;;;4.25;1.50;;;;;;;;;;5061677;28;20027;-69
2021/08/02 04:47:44;;;;;;;4.20;1.65;;;;;;;;;;5044697;28;20028;-69
2021/08/02 04:50:10;;;;;;;6.60;1.52;;;;;;;;;;5058262;28;20111;-69
2021/08/02 04:52:36;;;;;;;3.65;1.20;;;;;;;;;;5044896;28;20452;-70
2021/08/02 04:55:02;;;;;;;2.50;1.40;;;;;;;;;;5061859;28;20112;-69
2021/08/02 04:57:28;;;;;;;2.85;1.50;;;;;;;;;;5058599;28;20028;-68
2021/08/02 04:59:54;;;;;;;4.38;1.35;;;;;;;;;;5045124;28;20025;-69
2021/08/02 05:02:20;;;;;;;6.05;1.60;;;;;;;;;;5061920;28;20040;-69
2021/08/02 05:04:46;;;;;;;3.95;1.70;;;;;;;;;;5060973;28;20542;-71
2021/08/02 05:07:12;;;;;;;4.82;1.52;;;;;;;;;;5060321;28;20094;-70
2021/08/02 05:09:38;;;;;;;2.70;1.50;;;;;;;;;;5044446;28;20016;-70
2021/08/02 05:12:04;;;;;;;3.28;1.45;;;;;;;;;;5062641;28;20040;-69
2021/08/02 05:14:31;;;;;;;3.28;1.60;;;;;;;;;;5058654;28;20562;-70
2021/08/02 05:16:57;;;;;;;4.95;1.70;;;;;;;;;;5060793;28;20032;-69
2021/08/02 05:19:23;;;;;;;4.78;1.95;;;;;;;;;;5063488;28;20111;-71
2021/08/02 05:21:49;;;;;;;3.05;1.45;;;;;;;;;;5055160;28;20016;-70
2021/08/02 05:24:15;;;;;;;3.85;1.73;;;;;;;;;;5072711;28;20490;-71
2021/08/02 05:26:42;;;;;;;5.53;1.42;;;;;;;;;;5064935;28;20013;-70
2021/08/02 05:29:08;;;;;;;6.40;1.73;;;;;;;;;;5034585;28;20426;-70
2021/08/02 05:31:34;;;;;;;3.55;1.75;;;;;;;;;;5052767;28;20674;-70
2021/08/02 05:34:00;;;;;;;3.63;1.40;;;;;;;;;;5052339;28;20514;-71
2021/08/02 05:36:26;;;;;;;4.85;2.00;;;;;;;;;;5034776;28;20029;-70
2021/08/02 05:38:52;;;;;;;7.35;1.67;;;;;;;;;;5052662;28;20116;-70
2021/08/02 05:41:18;;;;;;;7.18;1.95;;;;;;;;;;5052758;28;20021;-69
2021/08/02 05:43:45;;;;;;;2.97;1.42;;;;;;;;;;5052191;28;20031;-70
2021/08/02 05:46:11;;;;;;;14.93;1.88;;;;;;;;;;5051945;28;20053;-70
2021/08/02 05:48:37;;;;;;;8.57;1.90;;;;;;;;;;5051999;28;20116;-69
2021/08/02 05:51:03;;;;;;;4.65;1.60;;;;;;;;;;5051923;28;20021;-71
2021/08/02 05:53:29;;;;;;;3.90;1.60;;;;;;;;;;5052304;28;20025;-69
2021/08/02 05:55:55;;;;;;;5.78;2.20;;;;;;;;;;5034102;28;20479;-69
2021/08/02 05:58:21;;;;;;;6.25;2.70;;;;;;;;;;5051927;28;20513;-69
2021/08/02 06:00:47;;;;;;;8.02;2.25;;;;;;;;;;5051772;28;20429;-69
2021/08/02 06:03:13;;;;;;;10.95;1.67;;;;;;;;;;5051621;28;20381;-69
2021/08/02 06:05:39;;;;;;;7.65;2.38;;;;;;;;;;5051527;28;20021;-70
2021/08/02 06:08:05;;;;;;;8.60;2.25;;;;;;;;;;5050265;28;20025;-69
2021/08/02 06:10:31;;;;;;;7.20;2.50;;;;;;;;;;5050852;28;20031;-69
2021/08/02 06:12:57;;;;;;;12.50;2.03;;;;;;;;;;5053672;28;20044;-69
2021/08/02 06:15:24;;;;;;;5.68;1.50;;;;;;;;;;5058123;28;20472;-70
2021/08/02 06:17:50;;;;;;;11.40;1.95;;;;;;;;;;5058993;28;20036;-71
2021/08/02 06:20:16;;;;;;;6.45;1.95;;;;;;;;;;5058204;28;20029;-69
2021/08/02 06:22:42;;;;;;;5.60;1.63;;;;;;;;;;5042015;28;20104;-69
2021/08/02 06:25:08;;;;;;;6.60;1.73;;;;;;;;;;5067585;28;20029;-69
2021/08/02 06:27:34;;;;;;;4.13;1.55;;;;;;;;;;5071857;28;20021;-69
2021/08/02 06:30:01;;;;;;;3.88;1.60;;;;;;;;;;5071833;28;20028;-69
2021/08/02 06:32:28;;;;;;;4.63;1.67;;;;;;;;;;5071935;28;20021;-69
2021/08/02 06:34:54;;;;;;;4.53;1.40;;;;;;;;;;5071905;28;20024;-69
2021/08/02 06:37:22;;;;;;;3.67;1.50;;;;;;;;;;5053699;28;20043;-69
2021/08/02 06:39:49;;;;;;;4.30;1.65;;;;;;;;;;5075161;28;20028;-69
2021/08/02 06:42:15;;;;;;;9.65;2.05;;;;;;;;;;5075649;28;20409;-69
2021/08/02 06:44:41;;;;;;;5.07;1.70;;;;;;;;;;5075959;28;20027;-69
2021/08/02 06:47:07;;;;;;;2.60;1.30;;;;;;;;;;5075380;28;20070;-69
2021/08/02 06:49:34;;;;;;;3.40;1.60;;;;;;;;;;5057550;28;20021;-69
2021/08/02 06:52:00;;;;;;;4.03;1.70;;;;;;;;;;5075516;28;20032;-69
2021/08/02 06:54:26;;;;;;;5.85;1.80;;;;;;;;;;5057595;28;20494;-69
2021/08/02 06:56:52;;;;;;;4.53;1.42;;;;;;;;;;5075391;28;20570;-69
2021/08/02 06:59:18;;;;;;;3.83;1.50;;;;;;;;;;5057538;28;20025;-69
2021/08/02 07:01:44;;;;;;;4.07;1.45;;;;;;;;;;5075701;28;20032;-69
2021/08/02 07:04:10;;;;;;;6.00;1.40;;;;;;;;;;5057335;28;20016;-70
2021/08/02 07:06:40;;;;;;;4.20;1.35;;;;;;;;;;5075451;28;20029;-69
2021/08/02 07:09:07;;;;;;;4.07;1.63;;;;;;;;;;5075460;28;20341;-69
2021/08/02 07:11:33;;;;;;;2.50;1.10;;;;;;;;;;5057358;28;20056;-69
2021/08/02 07:13:59;;;;;;;4.07;1.55;;;;;;;;;;5075269;28;20103;-69
2021/08/02 07:16:25;;;;;;;2.83;1.40;;;;;;;;;;5075086;28;20021;-69
2021/08/02 07:18:52;;;;;;;6.30;1.75;;;;;;;;;;5057088;28;20071;-69
2021/08/02 07:21:18;;;;;;;2.97;1.25;;;;;;;;;;5074978;28;20041;-69
2021/08/02 07:23:45;;;;;;;3.53;1.48;;;;;;;;;;5075254;28;20036;-68
2021/08/02 07:26:11;;;;;;;3.92;1.40;;;;;;;;;;5075085;28;20025;-69
2021/08/02 07:28:37;;;;;;;3.30;1.75;;;;;;;;;;5057077;28;20115;-69
2021/08/02 07:31:03;;;;;;;3.33;1.40;;;;;;;;;;5074971;28;20016;-69
2021/08/02 07:33:29;;;;;;;4.07;1.10;;;;;;;;;;5056505;28;20029;-68
2021/08/02 07:35:56;;;;;;;2.95;1.20;;;;;;;;;;5074815;28;20025;-69
2021/08/02 07:38:22;;;;;;;3.50;1.27;;;;;;;;;;5074802;28;20387;-69
2021/08/02 07:40:48;;;;;;;3.88;1.10;;;;;;;;;;5071490;28;20035;-69
2021/08/02 07:43:14;;;;;;;2.28;1.23;;;;;;;;;;5051300;28;20430;-69
2021/08/02 07:45:40;;;;;;;3.85;1.40;;;;;;;;;;5054199;28;20494;-69
2021/08/02 07:48:07;;;;;;;2.97;1.10;;;;;;;;;;5054493;28;20029;-70
2021/08/02 07:50:33;;;;;;;5.82;1.02;;;;;;;;;;5051124;28;20108;-68
2021/08/02 07:52:59;;;;;;;3.00;1.27;;;;;;;;;;5053306;28;20025;-69
2021/08/02 07:55:25;;;;;;;4.82;1.13;;;;;;;;;;5040084;28;20024;-71
2021/08/02 07:57:51;;;;;;;16.25;1.40;;;;;;;;;;5054324;28;20029;-69
2021/08/02 08:00:18;;;;;;;12.13;1.17;;;;;;;;;;5054150;28;20098;-70
2021/08/02 08:02:47;;;;;;;3.33;1.35;;;;;;;;;;5036623;28;20025;-69
2021/08/02 08:05:14;;;;;;;8.40;1.40;;;;;;;;;;5054369;28;20460;-70
2021/08/02 08:07:47;;;;;;;4.57;1.20;;;;;;;;;;5054474;28;20031;-68
2021/08/02 08:10:14;;;;;;;5.70;1.20;;;;;;;;;;5048942;28;20013;-69
2021/08/02 08:12:40;;;;;;;5.47;1.30;;;;;;;;;;5037067;28;20135;-68
2021/08/02 08:15:07;;;;;;;6.45;1.33;;;;;;;;;;5037263;28;20419;-68
2021/08/02 08:17:33;;;;;;;4.45;1.30;;;;;;;;;;5052558;28;20392;-68
2021/08/02 08:19:59;;;;;;;3.45;1.40;;;;;;;;;;5053985;28;20025;-68
2021/08/02 08:22:27;;;;;;;2.38;1.30;;;;;;;;;;5053967;28;20033;-71
2021/08/02 08:24:53;;;;;;;3.65;1.20;;;;;;;;;;5053879;28;20031;-68
2021/08/02 08:27:19;;;;;;;3.55;1.02;;;;;;;;;;5050378;28;20455;-68
2021/08/02 08:29:45;;;;;;;4.57;1.30;;;;;;;;;;5032598;28;20108;-67
2021/08/02 08:32:12;;;;;;;2.70;1.10;;;;;;;;;;5033782;28;20038;-68
2021/08/02 08:34:38;;;;;;;2.60;1.05;;;;;;;;;;5033793;28;20033;-68
2021/08/02 08:37:04;;;;;;;4.55;1.25;;;;;;;;;;5033662;28;20095;-68
2021/08/02 08:39:30;;;;;;;4.70;1.42;;;;;;;;;;5033673;28;20033;-68
2021/08/02 08:41:58;;;;;;;3.47;1.30;;;;;;;;;;5033728;28;20022;-69
2021/08/02 08:44:27;;;;;;;2.22;1.00;;;;;;;;;;5033575;28;20108;-70
2021/08/02 08:46:53;;;;;;;1.90;1.10;;;;;;;;;;5033138;28;20029;-69
2021/08/02 08:49:19;;;;;;;5.40;1.25;;;;;;;;;;5033461;28;20097;-68
2021/08/02 08:51:47;;;;;;;4.30;1.23;;;;;;;;;;5032022;28;20026;-68
2021/08/02 08:54:13;;;;;;;2.35;1.30;;;;;;;;;;5032283;28;20018;-69
2021/08/02 08:56:39;;;;;;;4.72;1.30;;;;;;;;;;5033234;28;20084;-68
2021/08/02 08:59:05;;;;;;;4.15;1.25;;;;;;;;;;5033375;28;20025;-68
2021/08/02 09:01:32;;;;;;;4.20;1.45;;;;;;;;;;5031118;28;20021;-68
2021/08/02 09:03:59;;;;;;;3.70;1.33;;;;;;;;;;5037357;28;20136;-67
2021/08/02 09:06:25;;;;;;;1.35;0.90;;;;;;;;;;5052779;28;20021;-71
2021/08/02 09:08:52;;;;;;;12.27;1.50;;;;;;;;;;5052778;28;20487;-69
2021/08/02 09:11:19;;;;;;;4.13;1.08;;;;;;;;;;5052846;28;20424;-68
2021/08/02 09:13:47;;;;;;;3.35;1.45;;;;;;;;;;5052843;28;20041;-67
2021/08/02 09:16:17;;;;;;;2.95;1.20;;;;;;;;;;5052558;28;20040;-69
2021/08/02 09:18:59;;;;;;;2.33;1.08;;;;;;;;;;5052593;28;20104;-69
2021/08/02 09:21:26;;;;;;;4.72;1.38;;;;;;;;;;5050992;28;20024;-68
2021/08/02 09:23:53;;;;;;;2.30;1.15;;;;;;;;;;5052236;28;20534;-68
2021/08/02 09:26:49;;;;;;;4.20;1.20;;;;;;;;;;5052610;28;20025;-69
2021/08/02 09:29:26;;;;;;;2.28;1.08;;;;;;;;;;5043757;28;20037;-68
2021/08/02 09:31:52;;;;;;;5.47;1.25;;;;;;;;;;5052855;28;20075;-69
2021/08/02 09:34:18;;;;;;;3.08;1.27;;;;;;;;;;5052574;28;20095;-68
2021/08/02 09:36:54;;;;;;;2.90;1.00;;;;;;;;;;5051034;28;20021;-68
2021/08/02 09:39:20;;;;;;;3.60;1.23;;;;;;;;;;5052271;28;20032;-68
2021/08/02 09:41:46;;;;;;;2.28;1.10;;;;;;;;;;5052428;28;20048;-67
2021/08/02 09:44:23;;;;;;;3.75;1.10;;;;;;;;;;5052058;28;20024;-68
2021/08/02 09:46:54;;;;;;;5.32;1.08;;;;;;;;;;5051865;28;20380;-68
2021/08/02 09:49:20;;;;;;;3.00;1.10;;;;;;;;;;5050862;28;20499;-68
2021/08/02 09:51:46;;;;;;;2.05;1.08;;;;;;;;;;5052015;28;20178;-68
2021/08/02 09:54:22;;;;;;;5.85;1.08;;;;;;;;;;5052265;28;20017;-68
2021/08/02 09:56:50;;;;;;;5.65;1.10;;;;;;;;;;5052042;28;20081;-68
2021/08/02 09:59:17;;;;;;;4.70;1.38;;;;;;;;;;5052148;28;20024;-68
2021/08/02 10:01:43;;;;;;;3.50;1.23;;;;;;;;;;5033807;28;20423;-68
2021/08/02 10:04:12;;;;;;;4.15;1.30;;;;;;;;;;5051896;28;20033;-68
2021/08/02 10:06:38;;;;;;;4.45;1.10;;;;;;;;;;5051876;28;20021;-68
2021/08/02 10:09:06;;;;;;;3.47;1.20;;;;;;;;;;5051970;28;20028;-68
2021/08/02 10:11:33;;;;;;;3.67;1.40;;;;;;;;;;5051888;28;20025;-67
2021/08/02 10:13:59;;;;;;;2.28;0.85;;;;;;;;;;5051711;28;20084;-68
2021/08/02 10:16:27;;;;;;;5.18;1.50;;;;;;;;;;5051707;28;20487;-69
2021/08/02 10:18:53;;;;;;;3.90;1.25;;;;;;;;;;5051760;28;20021;-69
2021/08/02 10:21:20;;;;;;;4.50;1.10;;;;;;;;;;5051928;28;20357;-69
2021/08/02 10:23:47;;;;;;;7.53;1.10;;;;;;;;;;5051485;28;20049;-69
2021/08/02 10:26:19;;;;;;;4.32;1.10;;;;;;;;;;5051713;28;20400;-69
2021/08/02 10:28:52;;;;;;;6.38;1.30;;;;;;;;;;5033685;28;20052;-69
2021/08/02 10:31:19;;;;;;;4.95;1.30;;;;;;;;;;5051767;28;20021;-69
2021/08/02 10:33:46;;;;;;;4.38;1.50;;;;;;;;;;5034116;28;20506;-69
2021/08/02 10:36:13;;;;;;;5.60;1.35;;;;;;;;;;5051699;28;20018;-69
2021/08/02 10:38:40;;;;;;;4.93;1.30;;;;;;;;;;5051286;28;20037;-69
2021/08/02 10:41:06;;;;;;;3.97;1.42;;;;;;;;;;5051039;28;20442;-71
2021/08/02 10:43:39;;;;;;;10.48;1.58;;;;;;;;;;5051297;28;20614;-70
2021/08/02 10:46:19;;;;;;;8.48;1.55;;;;;;;;;;5048915;28;20473;-69
2021/08/02 10:48:46;;;;;;;7.93;1.50;;;;;;;;;;5051592;28;20082;-69
2021/08/02 10:51:13;;;;;;;17.95;1.83;;;;;;;;;;5050806;28;20028;-70
2021/08/02 10:53:40;;;;;;;9.60;1.48;;;;;;;;;;5050810;28;20036;-69
2021/08/02 10:56:06;;;;;;;7.22;1.38;;;;;;;;;;5051685;28;20036;-69
2021/08/02 10:58:38;;;;;;;10.25;1.88;;;;;;;;;;5051663;28;20037;-69
2021/08/02 11:01:14;;;;;;;6.47;1.30;;;;;;;;;;5051689;28;20021;-69
2021/08/02 11:03:41;;;;;;;5.07;1.10;;;;;;;;;;5051663;28;20232;-70
2021/08/02 11:06:12;;;;;;;10.48;1.48;;;;;;;;;;5051614;28;20357;-70
2021/08/02 11:08:45;;;;;;;4.65;1.20;;;;;;;;;;5051770;28;20025;-70
2021/08/02 11:11:18;;;;;;;4.78;1.40;;;;;;;;;;5048563;28;20025;-70
2021/08/02 11:13:44;;;;;;;6.80;1.48;;;;;;;;;;5041730;28;20041;-70
2021/08/02 11:16:10;;;;;;;4.50;1.20;;;;;;;;;;5051295;28;20025;-70
2021/08/02 11:18:36;;;;;;;6.32;1.00;;;;;;;;;;5051428;28;20033;-70
2021/08/02 11:21:02;;;;;;;11.68;1.30;;;;;;;;;;5051475;28;20040;-69
2021/08/02 11:23:36;;;;;;;15.55;1.38;;;;;;;;;;5051408;28;20027;-70
2021/08/02 11:26:09;;;;;;;7.38;1.58;;;;;;;;;;5054534;28;20025;-70
2021/08/02 11:28:43;;;;;;;10.77;1.70;;;;;;;;;;5054717;28;20024;-70
2021/08/02 11:31:10;;;;;;;11.43;1.67;;;;;;;;;;5053811;28;20025;-70
2021/08/02 11:33:37;;;;;;;6.95;1.67;;;;;;;;;;5054436;28;20021;-69
2021/08/02 11:36:13;;;;;;;7.40;1.23;;;;;;;;;;5054934;28;20035;-70
2021/08/02 11:38:40;;;;;;;7.72;1.40;;;;;;;;;;5055009;28;20029;-70
2021/08/02 11:41:06;;;;;;;5.97;1.45;;;;;;;;;;5055298;28;20052;-70
2021/08/02 11:43:42;;;;;;;3.92;1.38;;;;;;;;;;5054296;28;20025;-70
2021/08/02 11:46:09;;;;;;;3.40;1.17;;;;;;;;;;5054780;28;20025;-70
2021/08/02 11:48:35;;;;;;;4.05;1.10;;;;;;;;;;5055251;28;20500;-70
2021/08/02 11:51:01;;;;;;;2.80;1.20;;;;;;;;;;5054779;28;20503;-70
2021/08/02 11:53:34;;;;;;;4.28;1.30;;;;;;;;;;5054480;28;20056;-70
2021/08/02 11:56:00;;;;;;;2.10;0.90;;;;;;;;;;5054607;28;20074;-71
2021/08/02 11:58:36;;;;;;;3.92;1.10;;;;;;;;;;5036569;28;20403;-69
2021/08/02 12:01:02;;;;;;;7.10;1.38;;;;;;;;;;5054425;28;20021;-70
2021/08/02 12:03:29;;;;;;;3.72;1.02;;;;;;;;;;5054506;28;20045;-70
2021/08/02 12:06:21;;;;;;;2.58;0.90;;;;;;;;;;5054778;28;20127;-69
2021/08/02 12:08:51;;;;;;;3.13;1.10;;;;;;;;;;5051727;28;20084;-69
2021/08/02 12:11:17;;;;;;;2.95;1.10;;;;;;;;;;5054396;28;20040;-70
2021/08/02 12:13:44;;;;;;;3.28;1.00;;;;;;;;;;5054060;28;20049;-70
2021/08/02 12:16:11;;;;;;;2.30;1.00;;;;;;;;;;5054422;28;20021;-70
2021/08/02 12:18:38;;;;;;;4.72;1.25;;;;;;;;;;5054331;28;20388;-70
2021/08/02 12:21:24;;;;;;;5.03;1.30;;;;;;;;;;5054326;28;20098;-70
2021/08/02 12:23:50;;;;;;;2.15;0.90;;;;;;;;;;5054019;28;20021;-70
2021/08/02 12:26:21;;;;;;;2.80;1.17;;;;;;;;;;5054027;28;20036;-70
2021/08/02 12:28:47;;;;;;;1.77;0.90;;;;;;;;;;5054208;28;20544;-70
2021/08/02 12:31:17;;;;;;;3.55;1.02;;;;;;;;;;5054080;28;20029;-70
2021/08/02 12:33:46;;;;;;;2.83;1.30;;;;;;;;;;5053982;28;20025;-70
2021/08/02 12:36:12;;;;;;;4.10;1.40;;;;;;;;;;5052920;28;20104;-70
2021/08/02 12:38:46;;;;;;;1.55;0.80;;;;;;;;;;5036036;28;20025;-70
2021/08/02 12:41:12;;;;;;;2.70;1.10;;;;;;;;;;5053843;28;20498;-70
2021/08/02 12:43:39;;;;;;;3.00;1.10;;;;;;;;;;5053831;28;20496;-69
2021/08/02 12:46:05;;;;;;;1.88;0.98;;;;;;;;;;5053746;28;20021;-70
2021/08/02 12:48:31;;;;;;;2.92;1.10;;;;;;;;;;5053688;28;20096;-69
2021/08/02 12:50:57;;;;;;;4.28;0.90;;;;;;;;;;5053688;28;20079;-70
2021/08/02 12:53:24;;;;;;;2.22;1.00;;;;;;;;;;5053483;28;20551;-69
2021/08/02 12:55:50;;;;;;;1.90;1.00;;;;;;;;;;5053404;28;20025;-70
2021/08/02 12:58:16;;;;;;;3.20;1.00;;;;;;;;;;5053625;28;20040;-70
2021/08/02 13:00:43;;;;;;;3.03;1.13;;;;;;;;;;5053480;28;20256;-70
2021/08/02 13:03:09;;;;;;;2.38;0.80;;;;;;;;;;5053467;28;20392;-70
2021/08/02 13:05:36;;;;;;;2.97;0.80;;;;;;;;;;5053199;28;20053;-69
2021/08/02 13:08:02;;;;;;;2.50;1.02;;;;;;;;;;5053610;28;20181;-70
2021/08/02 13:10:31;;;;;;;2.65;1.00;;;;;;;;;;5053215;28;20025;-70
2021/08/02 13:12:57;;;;;;;1.88;1.00;;;;;;;;;;5053197;28;20048;-69
2021/08/02 13:15:23;;;;;;;1.58;0.90;;;;;;;;;;5053231;28;20104;-70
2021/08/02 13:17:50;;;;;;;1.38;0.73;;;;;;;;;;5053007;28;20083;-70
2021/08/02 13:20:16;;;;;;;2.10;0.80;;;;;;;;;;5053084;28;20379;-69
2021/08/02 13:23:32;;;;;;;1.45;0.80;;;;;;;;;;5053131;28;20050;-70
2021/08/02 13:28:13;;;;;;;2.10;1.00;;;;;;;;;;5052693;28;20518;-70
2021/08/02 13:30:41;;;;;;;2.78;0.90;;;;;;;;;;5052617;28;20039;-69
2021/08/02 13:33:07;;;;;;;3.40;1.00;;;;;;;;;;5052687;28;20077;-70
2021/08/02 13:35:33;;;;;;;2.75;1.08;;;;;;;;;;5052758;28;20017;-70
2021/08/02 13:37:59;;;;;;;4.07;0.98;;;;;;;;;;5052656;28;20595;-69
2021/08/02 13:40:25;;;;;;;6.25;1.10;;;;;;;;;;5052074;28;20091;-69
2021/08/02 13:42:51;;;;;;;5.63;1.00;;;;;;;;;;5052409;28;20025;-70
2021/08/02 13:45:18;;;;;;;3.45;1.20;;;;;;;;;;5052586;28;20502;-69
2021/08/02 13:47:44;;;;;;;5.45;1.25;;;;;;;;;;5051515;28;20029;-69
2021/08/02 13:50:10;;;;;;;3.65;0.95;;;;;;;;;;5065275;28;20027;-69
2021/08/02 13:52:37;;;;;;;3.10;1.00;;;;;;;;;;5071275;28;20028;-69
2021/08/02 13:55:03;;;;;;;6.40;1.30;;;;;;;;;;5071970;28;20017;-69
2021/08/02 13:57:29;;;;;;;3.10;1.00;;;;;;;;;;5072236;28;20033;-69
2021/08/02 13:59:55;;;;;;;7.80;1.27;;;;;;;;;;5072260;28;20032;-69
2021/08/02 14:02:21;;;;;;;2.60;1.00;;;;;;;;;;5072322;28;20375;-69
2021/08/02 14:04:47;;;;;;;3.53;1.00;;;;;;;;;;5061442;28;20017;-69
2021/08/02 14:07:13;;;;;;;3.15;1.30;;;;;;;;;;5053948;28;20029;-69
2021/08/02 14:09:39;;;;;;;3.42;0.90;;;;;;;;;;5053057;28;20035;-69
2021/08/02 14:12:09;;;;;;;2.92;1.20;;;;;;;;;;5052813;28;20039;-68
2021/08/02 14:14:38;;;;;;;3.47;1.20;;;;;;;;;;5054362;28;20041;-69
2021/08/02 14:17:07;;;;;;;2.45;1.00;;;;;;;;;;5044767;28;20123;-69
2021/08/02 14:19:36;;;;;;;4.95;1.10;;;;;;;;;;5053646;28;20020;-69
2021/08/02 14:22:03;;;;;;;2.83;1.00;;;;;;;;;;5053740;28;20033;-70
2021/08/02 14:24:29;;;;;;;1.67;0.93;;;;;;;;;;5053001;28;20021;-69
2021/08/02 14:26:57;;;;;;;3.30;0.85;;;;;;;;;;5055288;28;20081;-70
2021/08/02 14:29:23;;;;;;;2.60;1.00;;;;;;;;;;5054119;28;20420;-69
2021/08/02 14:31:49;;;;;;;3.60;1.02;;;;;;;;;;5054539;28;20120;-69
2021/08/02 14:34:15;;;;;;;3.95;0.75;;;;;;;;;;5052742;28;21676;-69
2021/08/02 14:36:43;;;;;;;3.72;0.98;;;;;;;;;;5053967;28;20035;-69
2021/08/02 14:39:09;;;;;;;3.78;1.05;;;;;;;;;;5036451;28;20593;-69
2021/08/02 14:41:39;;;;;;;3.08;1.08;;;;;;;;;;5053096;28;20021;-69
2021/08/02 14:44:07;;;;;;;3.55;1.13;;;;;;;;;;5071725;28;20023;-69
2021/08/02 14:46:34;;;;;;;1.73;0.88;;;;;;;;;;5071287;28;20024;-70
2021/08/02 14:49:01;;;;;;;2.47;1.00;;;;;;;;;;5071642;28;20016;-69